sensor_id;sensor_type;location;lat;lon;timestamp;temperature;humidity
53599;DHT22;39485;45.702;11.364;2022-10-16T00:01:08;16.60;99.90
53599;DHT22;39485;45.702;11.364;2022-10-16T00:03:34;16.60;99.90
53599;DHT22;39485;45.702;11.364;2022-10-16T00:06:00;16.50;99.90
53599;DHT22;39485;45.702;11.364;2022-10-16T00:08:27;16.50;99.90
53599;DHT22;39485;45.702;11.364;2022-10-16T00:10:57;16.50;99.90
53599;DHT22;39485;45.702;11.364;2022-10-16T00:13:23;16.50;99.90
53599;DHT22;39485;45.702;11.364;2022-10-16T00:15:49;16.50;99.90
53599;DHT22;39485;45.702;11.364;2022-10-16T00:18:14;16.50;99.90
53599;DHT22;39485;45.702;11.364;2022-10-16T00:20:40;16.50;99.90
53599;DHT22;39485;45.702;11.364;2022-10-16T00:23:05;16.50;99.90
53599;DHT22;39485;45.702;11.364;2022-10-16T00:25:31;16.50;99.90
53599;DHT22;39485;45.702;11.364;2022-10-16T00:27:58;16.50;99.90
53599;DHT22;39485;45.702;11.364;2022-10-16T00:30:24;16.50;99.90
53599;DHT22;39485;45.702;11.364;2022-10-16T00:32:52;16.50;99.90
53599;DHT22;39485;45.702;11.364;2022-10-16T00:35:17;16.50;99.90
53599;DHT22;39485;45.702;11.364;2022-10-16T00:37:43;16.50;99.90
53599;DHT22;39485;45.702;11.364;2022-10-16T00:40:09;16.50;99.90
53599;DHT22;39485;45.702;11.364;2022-10-16T00:42:34;16.50;99.90
53599;DHT22;39485;45.702;11.364;2022-10-16T00:45:00;16.50;99.90
53599;DHT22;39485;45.702;11.364;2022-10-16T00:47:27;16.50;99.90
53599;DHT22;39485;45.702;11.364;2022-10-16T00:52:39;16.50;99.90
53599;DHT22;39485;45.702;11.364;2022-10-16T00:55:06;16.50;99.90
53599;DHT22;39485;45.702;11.364;2022-10-16T00:57:33;16.40;99.90
53599;DHT22;39485;45.702;11.364;2022-10-16T00:59:59;16.40;99.90
53599;DHT22;39485;45.702;11.364;2022-10-16T01:02:25;16.40;99.90
53599;DHT22;39485;45.702;11.364;2022-10-16T01:04:51;16.40;99.90
53599;DHT22;39485;45.702;11.364;2022-10-16T01:15:14;16.40;99.90
53599;DHT22;39485;45.702;11.364;2022-10-16T01:17:45;16.40;99.90
53599;DHT22;39485;45.702;11.364;2022-10-16T01:20:14;16.40;99.90
53599;DHT22;39485;45.702;11.364;2022-10-16T01:25:36;16.40;99.90
53599;DHT22;39485;45.702;11.364;2022-10-16T01:28:03;16.40;99.90
53599;DHT22;39485;45.702;11.364;2022-10-16T01:30:30;16.30;99.90
53599;DHT22;39485;45.702;11.364;2022-10-16T01:35:32;16.30;99.90
53599;DHT22;39485;45.702;11.364;2022-10-16T01:38:03;16.30;99.90
53599;DHT22;39485;45.702;11.364;2022-10-16T01:40:30;16.30;99.90
53599;DHT22;39485;45.702;11.364;2022-10-16T01:43:08;16.30;99.90
53599;DHT22;39485;45.702;11.364;2022-10-16T01:45:34;16.30;99.90
53599;DHT22;39485;45.702;11.364;2022-10-16T01:48:00;16.30;99.90
53599;DHT22;39485;45.702;11.364;2022-10-16T01:50:29;16.30;99.90
53599;DHT22;39485;45.702;11.364;2022-10-16T01:52:56;16.20;99.90
53599;DHT22;39485;45.702;11.364;2022-10-16T01:55:26;16.20;99.90
53599;DHT22;39485;45.702;11.364;2022-10-16T01:57:53;16.20;99.90
53599;DHT22;39485;45.702;11.364;2022-10-16T02:00:20;16.20;99.90
53599;DHT22;39485;45.702;11.364;2022-10-16T02:02:47;16.20;99.90
53599;DHT22;39485;45.702;11.364;2022-10-16T02:05:16;16.20;99.90
53599;DHT22;39485;45.702;11.364;2022-10-16T02:07:43;16.10;99.90
53599;DHT22;39485;45.702;11.364;2022-10-16T02:10:09;16.10;99.90
53599;DHT22;39485;45.702;11.364;2022-10-16T02:12:36;16.10;99.90
53599;DHT22;39485;45.702;11.364;2022-10-16T02:15:05;16.00;99.90
53599;DHT22;39485;45.702;11.364;2022-10-16T02:17:30;16.00;99.90
53599;DHT22;39485;45.702;11.364;2022-10-16T02:19:56;16.00;99.90
53599;DHT22;39485;45.702;11.364;2022-10-16T02:25:30;15.90;99.90
53599;DHT22;39485;45.702;11.364;2022-10-16T02:30:42;15.90;99.90
53599;DHT22;39485;45.702;11.364;2022-10-16T02:33:09;15.90;99.90
53599;DHT22;39485;45.702;11.364;2022-10-16T02:35:35;15.90;99.90
53599;DHT22;39485;45.702;11.364;2022-10-16T02:38:01;15.90;99.90
53599;DHT22;39485;45.702;11.364;2022-10-16T02:40:27;15.90;99.90
53599;DHT22;39485;45.702;11.364;2022-10-16T02:42:53;15.80;99.90
53599;DHT22;39485;45.702;11.364;2022-10-16T02:45:19;15.80;99.90
53599;DHT22;39485;45.702;11.364;2022-10-16T02:47:45;15.80;99.90
53599;DHT22;39485;45.702;11.364;2022-10-16T02:50:11;15.80;99.90
53599;DHT22;39485;45.702;11.364;2022-10-16T02:52:36;15.80;99.90
53599;DHT22;39485;45.702;11.364;2022-10-16T02:55:02;15.80;99.90
53599;DHT22;39485;45.702;11.364;2022-10-16T02:57:27;15.70;99.90
53599;DHT22;39485;45.702;11.364;2022-10-16T02:59:53;15.70;99.90
53599;DHT22;39485;45.702;11.364;2022-10-16T03:02:18;15.70;99.90
53599;DHT22;39485;45.702;11.364;2022-10-16T03:04:44;15.70;99.90
53599;DHT22;39485;45.702;11.364;2022-10-16T03:07:10;15.70;99.90
53599;DHT22;39485;45.702;11.364;2022-10-16T03:09:35;15.70;99.90
53599;DHT22;39485;45.702;11.364;2022-10-16T03:12:01;15.70;99.90
53599;DHT22;39485;45.702;11.364;2022-10-16T03:14:26;15.80;99.90
53599;DHT22;39485;45.702;11.364;2022-10-16T03:16:52;15.80;99.90
53599;DHT22;39485;45.702;11.364;2022-10-16T03:19:18;15.80;99.90
53599;DHT22;39485;45.702;11.364;2022-10-16T03:21:43;15.80;99.90
53599;DHT22;39485;45.702;11.364;2022-10-16T03:24:09;15.80;99.90
53599;DHT22;39485;45.702;11.364;2022-10-16T03:26:34;15.80;99.90
53599;DHT22;39485;45.702;11.364;2022-10-16T03:29:00;15.80;99.90
53599;DHT22;39485;45.702;11.364;2022-10-16T03:31:27;15.80;99.90
53599;DHT22;39485;45.702;11.364;2022-10-16T03:33:53;15.80;99.90
53599;DHT22;39485;45.702;11.364;2022-10-16T03:36:18;15.80;99.90
53599;DHT22;39485;45.702;11.364;2022-10-16T03:38:44;15.80;99.90
53599;DHT22;39485;45.702;11.364;2022-10-16T03:41:09;15.70;99.90
53599;DHT22;39485;45.702;11.364;2022-10-16T03:43:35;15.80;99.90
53599;DHT22;39485;45.702;11.364;2022-10-16T03:46:01;15.80;99.90
53599;DHT22;39485;45.702;11.364;2022-10-16T03:48:26;15.70;99.90
53599;DHT22;39485;45.702;11.364;2022-10-16T03:50:52;15.70;99.90
53599;DHT22;39485;45.702;11.364;2022-10-16T03:53:17;15.70;99.90
53599;DHT22;39485;45.702;11.364;2022-10-16T03:55:43;15.70;99.90
53599;DHT22;39485;45.702;11.364;2022-10-16T03:58:09;15.70;99.90
53599;DHT22;39485;45.702;11.364;2022-10-16T04:00:34;15.70;99.90
53599;DHT22;39485;45.702;11.364;2022-10-16T04:03:00;15.70;99.90
53599;DHT22;39485;45.702;11.364;2022-10-16T04:05:26;15.60;99.90
53599;DHT22;39485;45.702;11.364;2022-10-16T04:07:51;15.60;99.90
53599;DHT22;39485;45.702;11.364;2022-10-16T04:10:17;15.70;99.90
53599;DHT22;39485;45.702;11.364;2022-10-16T04:12:43;15.60;99.90
53599;DHT22;39485;45.702;11.364;2022-10-16T04:15:09;15.70;99.90
53599;DHT22;39485;45.702;11.364;2022-10-16T04:17:35;15.60;99.90
53599;DHT22;39485;45.702;11.364;2022-10-16T04:20:00;15.60;99.90
53599;DHT22;39485;45.702;11.364;2022-10-16T04:22:26;15.60;99.90
53599;DHT22;39485;45.702;11.364;2022-10-16T04:24:52;15.60;99.90
53599;DHT22;39485;45.702;11.364;2022-10-16T04:27:17;15.60;99.90
53599;DHT22;39485;45.702;11.364;2022-10-16T04:29:43;15.50;99.90
53599;DHT22;39485;45.702;11.364;2022-10-16T04:32:08;15.50;99.90
53599;DHT22;39485;45.702;11.364;2022-10-16T04:34:34;15.50;99.90
53599;DHT22;39485;45.702;11.364;2022-10-16T04:37:00;15.50;99.90
53599;DHT22;39485;45.702;11.364;2022-10-16T04:39:25;15.50;99.90
53599;DHT22;39485;45.702;11.364;2022-10-16T04:41:51;15.50;99.90
53599;DHT22;39485;45.702;11.364;2022-10-16T04:44:16;15.50;99.90
53599;DHT22;39485;45.702;11.364;2022-10-16T04:46:42;15.50;99.90
53599;DHT22;39485;45.702;11.364;2022-10-16T04:49:07;15.50;99.90
53599;DHT22;39485;45.702;11.364;2022-10-16T04:51:33;15.50;99.90
53599;DHT22;39485;45.702;11.364;2022-10-16T04:53:59;15.50;99.90
53599;DHT22;39485;45.702;11.364;2022-10-16T04:56:24;15.50;99.90
53599;DHT22;39485;45.702;11.364;2022-10-16T04:58:50;15.50;99.90
53599;DHT22;39485;45.702;11.364;2022-10-16T05:01:15;15.40;99.90
53599;DHT22;39485;45.702;11.364;2022-10-16T05:03:41;15.40;99.90
53599;DHT22;39485;45.702;11.364;2022-10-16T05:06:06;15.40;99.90
53599;DHT22;39485;45.702;11.364;2022-10-16T05:08:32;15.40;99.90
53599;DHT22;39485;45.702;11.364;2022-10-16T05:10:58;15.40;99.90
53599;DHT22;39485;45.702;11.364;2022-10-16T05:13:23;15.40;99.90
53599;DHT22;39485;45.702;11.364;2022-10-16T05:15:49;15.40;99.90
53599;DHT22;39485;45.702;11.364;2022-10-16T05:18:15;15.40;99.90
53599;DHT22;39485;45.702;11.364;2022-10-16T05:20:41;15.40;99.90
53599;DHT22;39485;45.702;11.364;2022-10-16T05:23:06;15.40;99.90
53599;DHT22;39485;45.702;11.364;2022-10-16T05:25:32;15.30;99.90
53599;DHT22;39485;45.702;11.364;2022-10-16T05:27:58;15.30;99.90
53599;DHT22;39485;45.702;11.364;2022-10-16T05:30:23;15.30;99.90
53599;DHT22;39485;45.702;11.364;2022-10-16T05:32:49;15.30;99.90
53599;DHT22;39485;45.702;11.364;2022-10-16T05:35:16;15.30;99.90
53599;DHT22;39485;45.702;11.364;2022-10-16T05:37:41;15.30;99.90
53599;DHT22;39485;45.702;11.364;2022-10-16T05:40:07;15.30;99.90
53599;DHT22;39485;45.702;11.364;2022-10-16T05:42:33;15.30;99.90
53599;DHT22;39485;45.702;11.364;2022-10-16T05:44:59;15.30;99.90
53599;DHT22;39485;45.702;11.364;2022-10-16T05:47:24;15.30;99.90
53599;DHT22;39485;45.702;11.364;2022-10-16T05:49:50;15.30;99.90
53599;DHT22;39485;45.702;11.364;2022-10-16T05:52:15;15.30;99.90
53599;DHT22;39485;45.702;11.364;2022-10-16T05:54:41;15.30;99.90
53599;DHT22;39485;45.702;11.364;2022-10-16T05:57:06;15.30;99.90
53599;DHT22;39485;45.702;11.364;2022-10-16T05:59:32;15.30;99.90
53599;DHT22;39485;45.702;11.364;2022-10-16T06:01:57;15.30;99.90
53599;DHT22;39485;45.702;11.364;2022-10-16T06:04:23;15.40;99.90
53599;DHT22;39485;45.702;11.364;2022-10-16T06:06:49;15.40;99.90
53599;DHT22;39485;45.702;11.364;2022-10-16T06:09:14;15.40;99.90
53599;DHT22;39485;45.702;11.364;2022-10-16T06:11:40;15.40;99.90
53599;DHT22;39485;45.702;11.364;2022-10-16T06:14:05;15.40;99.90
53599;DHT22;39485;45.702;11.364;2022-10-16T06:16:34;15.40;99.90
53599;DHT22;39485;45.702;11.364;2022-10-16T06:19:01;15.40;99.90
53599;DHT22;39485;45.702;11.364;2022-10-16T06:21:28;15.40;99.90
53599;DHT22;39485;45.702;11.364;2022-10-16T06:23:54;15.40;99.90
53599;DHT22;39485;45.702;11.364;2022-10-16T06:26:21;15.40;99.90
53599;DHT22;39485;45.702;11.364;2022-10-16T06:28:46;15.40;99.90
53599;DHT22;39485;45.702;11.364;2022-10-16T06:31:13;15.50;99.90
53599;DHT22;39485;45.702;11.364;2022-10-16T06:33:38;15.40;99.90
53599;DHT22;39485;45.702;11.364;2022-10-16T06:36:05;15.50;99.90
53599;DHT22;39485;45.702;11.364;2022-10-16T06:38:31;15.50;99.90
53599;DHT22;39485;45.702;11.364;2022-10-16T06:40:57;15.50;99.90
53599;DHT22;39485;45.702;11.364;2022-10-16T06:43:22;15.60;99.90
53599;DHT22;39485;45.702;11.364;2022-10-16T06:45:54;15.60;99.90
53599;DHT22;39485;45.702;11.364;2022-10-16T06:48:20;15.60;99.90
53599;DHT22;39485;45.702;11.364;2022-10-16T06:50:56;15.60;99.90
53599;DHT22;39485;45.702;11.364;2022-10-16T06:53:22;15.70;99.90
53599;DHT22;39485;45.702;11.364;2022-10-16T06:55:48;15.70;99.90
53599;DHT22;39485;45.702;11.364;2022-10-16T06:58:13;15.80;99.90
53599;DHT22;39485;45.702;11.364;2022-10-16T07:00:39;15.80;99.90
53599;DHT22;39485;45.702;11.364;2022-10-16T07:03:04;15.80;99.90
53599;DHT22;39485;45.702;11.364;2022-10-16T07:05:30;15.80;99.90
53599;DHT22;39485;45.702;11.364;2022-10-16T07:07:55;15.90;99.90
53599;DHT22;39485;45.702;11.364;2022-10-16T07:10:21;15.90;99.90
53599;DHT22;39485;45.702;11.364;2022-10-16T07:12:49;15.90;99.90
53599;DHT22;39485;45.702;11.364;2022-10-16T07:15:16;16.00;99.90
53599;DHT22;39485;45.702;11.364;2022-10-16T07:17:41;15.90;99.90
53599;DHT22;39485;45.702;11.364;2022-10-16T07:20:07;16.00;99.90
53599;DHT22;39485;45.702;11.364;2022-10-16T07:22:33;16.00;99.90
53599;DHT22;39485;45.702;11.364;2022-10-16T07:24:58;16.00;99.90
53599;DHT22;39485;45.702;11.364;2022-10-16T07:27:24;16.00;99.90
53599;DHT22;39485;45.702;11.364;2022-10-16T07:29:50;16.10;99.90
53599;DHT22;39485;45.702;11.364;2022-10-16T07:32:15;16.10;99.90
53599;DHT22;39485;45.702;11.364;2022-10-16T07:34:41;16.10;99.90
53599;DHT22;39485;45.702;11.364;2022-10-16T07:37:07;16.20;99.90
53599;DHT22;39485;45.702;11.364;2022-10-16T07:39:33;16.20;99.90
53599;DHT22;39485;45.702;11.364;2022-10-16T07:41:58;16.20;99.90
53599;DHT22;39485;45.702;11.364;2022-10-16T07:44:24;16.20;99.90
53599;DHT22;39485;45.702;11.364;2022-10-16T07:46:49;16.20;99.90
53599;DHT22;39485;45.702;11.364;2022-10-16T07:49:15;16.20;99.90
53599;DHT22;39485;45.702;11.364;2022-10-16T07:51:41;16.20;99.90
53599;DHT22;39485;45.702;11.364;2022-10-16T07:54:07;16.30;99.90
53599;DHT22;39485;45.702;11.364;2022-10-16T07:56:33;16.30;99.90
53599;DHT22;39485;45.702;11.364;2022-10-16T07:58:58;16.30;99.90
53599;DHT22;39485;45.702;11.364;2022-10-16T08:01:24;16.30;99.90
53599;DHT22;39485;45.702;11.364;2022-10-16T08:03:50;16.30;99.90
53599;DHT22;39485;45.702;11.364;2022-10-16T08:06:17;16.40;99.90
53599;DHT22;39485;45.702;11.364;2022-10-16T08:08:42;16.40;99.90
53599;DHT22;39485;45.702;11.364;2022-10-16T08:11:08;16.50;99.90
53599;DHT22;39485;45.702;11.364;2022-10-16T08:13:34;16.50;99.90
53599;DHT22;39485;45.702;11.364;2022-10-16T08:16:00;16.60;99.90
53599;DHT22;39485;45.702;11.364;2022-10-16T08:18:25;16.70;99.90
53599;DHT22;39485;45.702;11.364;2022-10-16T08:20:57;16.80;99.90
53599;DHT22;39485;45.702;11.364;2022-10-16T08:23:24;16.90;99.90
53599;DHT22;39485;45.702;11.364;2022-10-16T08:25:51;17.00;99.90
53599;DHT22;39485;45.702;11.364;2022-10-16T08:28:17;17.10;99.90
53599;DHT22;39485;45.702;11.364;2022-10-16T08:30:42;17.20;99.90
53599;DHT22;39485;45.702;11.364;2022-10-16T08:33:08;17.20;99.90
53599;DHT22;39485;45.702;11.364;2022-10-16T08:35:33;17.30;99.90
53599;DHT22;39485;45.702;11.364;2022-10-16T08:37:59;17.40;99.90
53599;DHT22;39485;45.702;11.364;2022-10-16T08:40:28;17.50;99.90
53599;DHT22;39485;45.702;11.364;2022-10-16T08:48:14;17.70;99.90
53599;DHT22;39485;45.702;11.364;2022-10-16T08:50:42;17.80;99.90
53599;DHT22;39485;45.702;11.364;2022-10-16T08:53:11;17.80;99.90
53599;DHT22;39485;45.702;11.364;2022-10-16T08:55:43;17.90;99.90
53599;DHT22;39485;45.702;11.364;2022-10-16T08:58:18;18.00;99.90
53599;DHT22;39485;45.702;11.364;2022-10-16T09:00:46;18.00;99.90
53599;DHT22;39485;45.702;11.364;2022-10-16T09:05:50;18.10;99.90
53599;DHT22;39485;45.702;11.364;2022-10-16T09:18:38;18.30;99.90
53599;DHT22;39485;45.702;11.364;2022-10-16T09:21:19;18.40;99.90
53599;DHT22;39485;45.702;11.364;2022-10-16T09:23:46;18.50;99.90
53599;DHT22;39485;45.702;11.364;2022-10-16T09:26:12;18.50;99.90
53599;DHT22;39485;45.702;11.364;2022-10-16T09:28:38;18.60;99.90
53599;DHT22;39485;45.702;11.364;2022-10-16T09:31:04;18.60;99.90
53599;DHT22;39485;45.702;11.364;2022-10-16T09:33:39;18.60;99.90
53599;DHT22;39485;45.702;11.364;2022-10-16T09:36:06;18.70;99.90
53599;DHT22;39485;45.702;11.364;2022-10-16T09:38:32;18.70;99.90
53599;DHT22;39485;45.702;11.364;2022-10-16T09:41:02;18.70;99.90
53599;DHT22;39485;45.702;11.364;2022-10-16T09:43:32;18.70;99.90
53599;DHT22;39485;45.702;11.364;2022-10-16T09:48:25;18.80;99.90
53599;DHT22;39485;45.702;11.364;2022-10-16T09:50:58;18.90;99.90
53599;DHT22;39485;45.702;11.364;2022-10-16T09:53:38;18.90;99.90
53599;DHT22;39485;45.702;11.364;2022-10-16T09:56:04;18.90;99.90
53599;DHT22;39485;45.702;11.364;2022-10-16T09:58:31;18.90;99.90
53599;DHT22;39485;45.702;11.364;2022-10-16T10:00:58;18.90;99.90
53599;DHT22;39485;45.702;11.364;2022-10-16T10:03:35;18.90;99.90
53599;DHT22;39485;45.702;11.364;2022-10-16T10:06:23;19.00;99.90
53599;DHT22;39485;45.702;11.364;2022-10-16T10:08:56;19.00;99.90
53599;DHT22;39485;45.702;11.364;2022-10-16T10:17:07;19.20;99.90
53599;DHT22;39485;45.702;11.364;2022-10-16T10:19:37;19.20;99.90
53599;DHT22;39485;45.702;11.364;2022-10-16T10:27:32;19.20;99.90
53599;DHT22;39485;45.702;11.364;2022-10-16T10:30:02;19.30;99.90
53599;DHT22;39485;45.702;11.364;2022-10-16T10:32:41;19.30;99.90
53599;DHT22;39485;45.702;11.364;2022-10-16T10:41:04;19.40;99.90
53599;DHT22;39485;45.702;11.364;2022-10-16T10:43:16;19.40;99.90
53599;DHT22;39485;45.702;11.364;2022-10-16T10:45:45;19.50;99.90
53599;DHT22;39485;45.702;11.364;2022-10-16T10:48:14;19.50;99.90
53599;DHT22;39485;45.702;11.364;2022-10-16T10:50:44;19.50;99.90
53599;DHT22;39485;45.702;11.364;2022-10-16T11:01:35;19.60;99.90
53599;DHT22;39485;45.702;11.364;2022-10-16T11:04:10;19.70;99.90
53599;DHT22;39485;45.702;11.364;2022-10-16T11:06:50;19.70;99.90
53599;DHT22;39485;45.702;11.364;2022-10-16T11:11:43;19.70;99.90
53599;DHT22;39485;45.702;11.364;2022-10-16T11:16:40;19.80;99.90
53599;DHT22;39485;45.702;11.364;2022-10-16T11:21:56;19.80;99.90
53599;DHT22;39485;45.702;11.364;2022-10-16T11:26:53;19.80;99.90
53599;DHT22;39485;45.702;11.364;2022-10-16T11:29:21;19.80;99.90
53599;DHT22;39485;45.702;11.364;2022-10-16T11:31:49;19.80;99.90
53599;DHT22;39485;45.702;11.364;2022-10-16T11:36:50;19.80;99.90
53599;DHT22;39485;45.702;11.364;2022-10-16T11:39:19;19.70;99.90
53599;DHT22;39485;45.702;11.364;2022-10-16T11:41:47;19.70;99.90
53599;DHT22;39485;45.702;11.364;2022-10-16T11:47:02;19.70;99.90
53599;DHT22;39485;45.702;11.364;2022-10-16T11:49:32;19.70;99.90
53599;DHT22;39485;45.702;11.364;2022-10-16T11:54:43;19.60;99.90
53599;DHT22;39485;45.702;11.364;2022-10-16T11:57:17;19.70;99.90
53599;DHT22;39485;45.702;11.364;2022-10-16T11:59:47;19.60;99.90
53599;DHT22;39485;45.702;11.364;2022-10-16T12:04:42;19.60;99.90
53599;DHT22;39485;45.702;11.364;2022-10-16T12:07:14;19.70;99.90
53599;DHT22;39485;45.702;11.364;2022-10-16T12:09:41;19.70;99.90
53599;DHT22;39485;45.702;11.364;2022-10-16T12:12:23;19.70;99.90
53599;DHT22;39485;45.702;11.364;2022-10-16T12:14:58;19.70;99.90
53599;DHT22;39485;45.702;11.364;2022-10-16T12:17:34;19.70;99.90
53599;DHT22;39485;45.702;11.364;2022-10-16T12:20:23;19.70;99.90
53599;DHT22;39485;45.702;11.364;2022-10-16T12:22:50;19.70;99.90
53599;DHT22;39485;45.702;11.364;2022-10-16T12:25:23;19.80;99.90
53599;DHT22;39485;45.702;11.364;2022-10-16T12:27:56;19.70;99.90
53599;DHT22;39485;45.702;11.364;2022-10-16T12:30:23;19.70;99.90
53599;DHT22;39485;45.702;11.364;2022-10-16T12:32:59;19.70;99.90
53599;DHT22;39485;45.702;11.364;2022-10-16T12:35:35;19.70;99.90
53599;DHT22;39485;45.702;11.364;2022-10-16T12:38:16;19.60;99.90
53599;DHT22;39485;45.702;11.364;2022-10-16T12:40:42;19.60;99.90
53599;DHT22;39485;45.702;11.364;2022-10-16T12:43:34;19.50;99.90
53599;DHT22;39485;45.702;11.364;2022-10-16T12:48:35;19.40;99.90
53599;DHT22;39485;45.702;11.364;2022-10-16T12:53:45;19.30;99.90
53599;DHT22;39485;45.702;11.364;2022-10-16T12:56:22;19.40;99.90
53599;DHT22;39485;45.702;11.364;2022-10-16T13:11:26;19.50;99.90
53599;DHT22;39485;45.702;11.364;2022-10-16T13:19:41;19.60;99.90
53599;DHT22;39485;45.702;11.364;2022-10-16T13:22:08;19.70;99.90
53599;DHT22;39485;45.702;11.364;2022-10-16T13:29:44;19.80;99.90
53599;DHT22;39485;45.702;11.364;2022-10-16T13:32:11;19.80;99.90
53599;DHT22;39485;45.702;11.364;2022-10-16T13:34:45;19.80;99.90
53599;DHT22;39485;45.702;11.364;2022-10-16T13:37:17;19.80;99.90
53599;DHT22;39485;45.702;11.364;2022-10-16T13:39:43;19.90;99.90
53599;DHT22;39485;45.702;11.364;2022-10-16T13:42:10;19.90;99.90
53599;DHT22;39485;45.702;11.364;2022-10-16T13:44:43;19.90;99.90
53599;DHT22;39485;45.702;11.364;2022-10-16T13:47:22;19.90;99.90
53599;DHT22;39485;45.702;11.364;2022-10-16T13:52:29;20.00;99.90
53599;DHT22;39485;45.702;11.364;2022-10-16T13:54:54;20.00;99.90
53599;DHT22;39485;45.702;11.364;2022-10-16T13:57:22;20.00;99.90
53599;DHT22;39485;45.702;11.364;2022-10-16T13:59:48;20.00;99.90
53599;DHT22;39485;45.702;11.364;2022-10-16T14:02:16;20.00;99.90
53599;DHT22;39485;45.702;11.364;2022-10-16T14:04:43;20.00;99.90
53599;DHT22;39485;45.702;11.364;2022-10-16T14:07:19;20.00;99.90
53599;DHT22;39485;45.702;11.364;2022-10-16T14:09:47;20.00;99.90
53599;DHT22;39485;45.702;11.364;2022-10-16T14:12:13;20.00;99.90
53599;DHT22;39485;45.702;11.364;2022-10-16T14:14:40;19.90;99.90
53599;DHT22;39485;45.702;11.364;2022-10-16T14:17:12;19.90;99.90
53599;DHT22;39485;45.702;11.364;2022-10-16T14:19:38;19.90;99.90
53599;DHT22;39485;45.702;11.364;2022-10-16T14:22:20;20.00;99.90
53599;DHT22;39485;45.702;11.364;2022-10-16T14:24:47;20.00;99.90
53599;DHT22;39485;45.702;11.364;2022-10-16T14:32:39;20.00;99.90
53599;DHT22;39485;45.702;11.364;2022-10-16T14:35:11;20.00;99.90
53599;DHT22;39485;45.702;11.364;2022-10-16T14:37:50;20.00;99.90
53599;DHT22;39485;45.702;11.364;2022-10-16T14:40:16;20.10;99.90
53599;DHT22;39485;45.702;11.364;2022-10-16T14:42:43;20.00;99.90
53599;DHT22;39485;45.702;11.364;2022-10-16T14:45:09;20.00;99.90
53599;DHT22;39485;45.702;11.364;2022-10-16T14:47:35;20.10;99.90
53599;DHT22;39485;45.702;11.364;2022-10-16T14:50:02;20.00;99.90
53599;DHT22;39485;45.702;11.364;2022-10-16T14:52:28;20.00;99.90
53599;DHT22;39485;45.702;11.364;2022-10-16T14:54:53;20.00;99.90
53599;DHT22;39485;45.702;11.364;2022-10-16T14:57:21;20.00;99.90
53599;DHT22;39485;45.702;11.364;2022-10-16T14:59:47;19.90;99.90
53599;DHT22;39485;45.702;11.364;2022-10-16T15:02:27;19.90;99.90
53599;DHT22;39485;45.702;11.364;2022-10-16T15:04:53;19.80;99.90
53599;DHT22;39485;45.702;11.364;2022-10-16T15:07:19;19.80;99.90
53599;DHT22;39485;45.702;11.364;2022-10-16T15:09:45;19.80;99.90
53599;DHT22;39485;45.702;11.364;2022-10-16T15:12:10;19.70;99.90
53599;DHT22;39485;45.702;11.364;2022-10-16T15:14:36;19.70;99.90
53599;DHT22;39485;45.702;11.364;2022-10-16T15:17:02;19.70;99.90
53599;DHT22;39485;45.702;11.364;2022-10-16T15:19:27;19.60;99.90
53599;DHT22;39485;45.702;11.364;2022-10-16T15:21:53;19.60;99.90
53599;DHT22;39485;45.702;11.364;2022-10-16T15:24:18;19.60;99.90
53599;DHT22;39485;45.702;11.364;2022-10-16T15:26:44;19.50;99.90
53599;DHT22;39485;45.702;11.364;2022-10-16T15:29:11;19.50;99.90
53599;DHT22;39485;45.702;11.364;2022-10-16T15:31:37;19.40;99.90
53599;DHT22;39485;45.702;11.364;2022-10-16T15:34:03;19.40;99.90
53599;DHT22;39485;45.702;11.364;2022-10-16T15:36:32;19.40;99.90
53599;DHT22;39485;45.702;11.364;2022-10-16T15:39:05;19.40;99.90
53599;DHT22;39485;45.702;11.364;2022-10-16T15:41:31;19.30;99.90
53599;DHT22;39485;45.702;11.364;2022-10-16T15:43:56;19.30;99.90
53599;DHT22;39485;45.702;11.364;2022-10-16T15:46:23;19.30;99.90
53599;DHT22;39485;45.702;11.364;2022-10-16T15:48:49;19.20;99.90
53599;DHT22;39485;45.702;11.364;2022-10-16T15:51:15;19.20;99.90
53599;DHT22;39485;45.702;11.364;2022-10-16T15:53:41;19.10;99.90
53599;DHT22;39485;45.702;11.364;2022-10-16T15:56:07;19.00;99.90
53599;DHT22;39485;45.702;11.364;2022-10-16T15:58:33;19.00;99.90
53599;DHT22;39485;45.702;11.364;2022-10-16T16:00:59;18.90;99.90
53599;DHT22;39485;45.702;11.364;2022-10-16T16:03:29;18.80;99.90
53599;DHT22;39485;45.702;11.364;2022-10-16T16:05:54;18.80;99.90
53599;DHT22;39485;45.702;11.364;2022-10-16T16:08:20;18.70;99.90
53599;DHT22;39485;45.702;11.364;2022-10-16T16:10:56;18.70;99.90
53599;DHT22;39485;45.702;11.364;2022-10-16T16:13:21;18.60;99.90
53599;DHT22;39485;45.702;11.364;2022-10-16T16:15:47;18.50;99.90
53599;DHT22;39485;45.702;11.364;2022-10-16T16:18:12;18.50;99.90
53599;DHT22;39485;45.702;11.364;2022-10-16T16:20:38;18.40;99.90
53599;DHT22;39485;45.702;11.364;2022-10-16T16:23:03;18.30;99.90
53599;DHT22;39485;45.702;11.364;2022-10-16T16:25:29;18.30;99.90
53599;DHT22;39485;45.702;11.364;2022-10-16T16:27:54;18.20;99.90
53599;DHT22;39485;45.702;11.364;2022-10-16T16:30:20;18.10;99.90
53599;DHT22;39485;45.702;11.364;2022-10-16T16:32:46;18.10;99.90
53599;DHT22;39485;45.702;11.364;2022-10-16T16:35:11;18.10;99.90
53599;DHT22;39485;45.702;11.364;2022-10-16T16:37:37;18.00;99.90
53599;DHT22;39485;45.702;11.364;2022-10-16T16:40:02;17.90;99.90
53599;DHT22;39485;45.702;11.364;2022-10-16T16:42:28;17.80;99.90
53599;DHT22;39485;45.702;11.364;2022-10-16T16:44:53;17.80;99.90
53599;DHT22;39485;45.702;11.364;2022-10-16T16:47:19;17.80;99.90
53599;DHT22;39485;45.702;11.364;2022-10-16T16:49:45;17.70;99.90
53599;DHT22;39485;45.702;11.364;2022-10-16T16:52:12;17.70;99.90
53599;DHT22;39485;45.702;11.364;2022-10-16T16:54:37;17.60;99.90
53599;DHT22;39485;45.702;11.364;2022-10-16T16:57:03;17.60;99.90
53599;DHT22;39485;45.702;11.364;2022-10-16T16:59:29;17.50;99.90
53599;DHT22;39485;45.702;11.364;2022-10-16T17:01:58;17.50;99.90
53599;DHT22;39485;45.702;11.364;2022-10-16T17:04:24;17.50;99.90
53599;DHT22;39485;45.702;11.364;2022-10-16T17:06:49;17.40;99.90
53599;DHT22;39485;45.702;11.364;2022-10-16T17:09:15;17.30;99.90
53599;DHT22;39485;45.702;11.364;2022-10-16T17:11:40;17.30;99.90
53599;DHT22;39485;45.702;11.364;2022-10-16T17:14:08;17.30;99.90
53599;DHT22;39485;45.702;11.364;2022-10-16T17:21:49;17.20;99.90
53599;DHT22;39485;45.702;11.364;2022-10-16T17:24:15;17.20;99.90
53599;DHT22;39485;45.702;11.364;2022-10-16T17:26:40;17.20;99.90